sensor_id;sensor_type;location;lat;lon;timestamp;pressure;altitude;pressure_sealevel;temperature;humidity
59190;BME280;50749;51.636;4.948;2023-03-15T00:00:54;101247.63;;;17.38;48.46
59190;BME280;50749;51.636;4.948;2023-03-15T00:03:21;101248.78;;;17.37;48.70
59190;BME280;50749;51.636;4.948;2023-03-15T00:05:49;101246.34;;;17.36;48.40
59190;BME280;50749;51.636;4.948;2023-03-15T00:08:17;101249.47;;;17.34;48.22
59190;BME280;50749;51.636;4.948;2023-03-15T00:10:45;101247.03;;;17.33;48.34
59190;BME280;50749;51.636;4.948;2023-03-15T00:13:12;101244.63;;;17.31;48.64
59190;BME280;50749;51.636;4.948;2023-03-15T00:15:49;101246.59;;;17.31;48.58
59190;BME280;50749;51.636;4.948;2023-03-15T00:18:16;101246.13;;;17.29;48.25
59190;BME280;50749;51.636;4.948;2023-03-15T00:20:42;101247.59;;;17.26;48.46
59190;BME280;50749;51.636;4.948;2023-03-15T00:23:09;101255.91;;;17.26;48.42
59190;BME280;50749;51.636;4.948;2023-03-15T00:25:35;101256.25;;;17.24;48.47
59190;BME280;50749;51.636;4.948;2023-03-15T00:28:02;101260.16;;;17.23;48.32
59190;BME280;50749;51.636;4.948;2023-03-15T00:30:28;101258.53;;;17.22;48.74
59190;BME280;50749;51.636;4.948;2023-03-15T00:32:54;101261.66;;;17.21;48.39
59190;BME280;50749;51.636;4.948;2023-03-15T00:35:20;101270.72;;;17.21;48.46
59190;BME280;50749;51.636;4.948;2023-03-15T00:37:52;101260.06;;;17.20;48.44
59190;BME280;50749;51.636;4.948;2023-03-15T00:40:19;101270.28;;;17.19;48.55
59190;BME280;50749;51.636;4.948;2023-03-15T00:42:45;101272.25;;;17.19;48.65
59190;BME280;50749;51.636;4.948;2023-03-15T00:45:19;101273.38;;;17.18;48.69
59190;BME280;50749;51.636;4.948;2023-03-15T00:47:50;101274.53;;;17.17;48.66
59190;BME280;50749;51.636;4.948;2023-03-15T00:50:16;101277.31;;;17.17;48.73
59190;BME280;50749;51.636;4.948;2023-03-15T00:52:42;101282.38;;;17.15;48.62
59190;BME280;50749;51.636;4.948;2023-03-15T00:55:10;101273.59;;;17.13;48.55
59190;BME280;50749;51.636;4.948;2023-03-15T00:57:41;101281.88;;;17.13;48.86
59190;BME280;50749;51.636;4.948;2023-03-15T01:00:09;101296.03;;;17.11;48.67
59190;BME280;50749;51.636;4.948;2023-03-15T01:02:36;101298.00;;;17.11;48.86
59190;BME280;50749;51.636;4.948;2023-03-15T01:05:06;101305.50;;;17.10;48.84
59190;BME280;50749;51.636;4.948;2023-03-15T01:07:33;101318.47;;;17.09;48.69
59190;BME280;50749;51.636;4.948;2023-03-15T01:10:00;101316.53;;;17.10;49.08
59190;BME280;50749;51.636;4.948;2023-03-15T01:12:30;101314.91;;;17.09;49.05
59190;BME280;50749;51.636;4.948;2023-03-15T01:15:00;101301.44;;;17.07;49.09
59190;BME280;50749;51.636;4.948;2023-03-15T01:18:19;101310.91;;;17.06;49.38
59190;BME280;50749;51.636;4.948;2023-03-15T01:20:45;101310.06;;;17.06;49.49
59190;BME280;50749;51.636;4.948;2023-03-15T01:23:10;101314.00;;;17.05;49.35
59190;BME280;50749;51.636;4.948;2023-03-15T01:25:36;101312.38;;;17.04;49.39
59190;BME280;50749;51.636;4.948;2023-03-15T01:28:02;101310.75;;;17.03;49.39
59190;BME280;50749;51.636;4.948;2023-03-15T01:30:28;101318.22;;;17.02;49.53
59190;BME280;50749;51.636;4.948;2023-03-15T01:32:54;101317.44;;;17.02;49.43
59190;BME280;50749;51.636;4.948;2023-03-15T01:35:20;101318.56;;;17.01;49.51
59190;BME280;50749;51.636;4.948;2023-03-15T01:37:48;101329.63;;;17.01;49.49
59190;BME280;50749;51.636;4.948;2023-03-15T01:40:15;101331.59;;;17.00;49.21
59190;BME280;50749;51.636;4.948;2023-03-15T01:51:10;101338.91;;;16.96;49.58
59190;BME280;50749;51.636;4.948;2023-03-15T01:53:36;101338.13;;;16.96;49.54
59190;BME280;50749;51.636;4.948;2023-03-15T01:56:04;101342.84;;;16.95;49.67
59190;BME280;50749;51.636;4.948;2023-03-15T01:58:30;101348.38;;;16.95;49.25
59190;BME280;50749;51.636;4.948;2023-03-15T02:00:58;101347.56;;;16.95;49.32
59190;BME280;50749;51.636;4.948;2023-03-15T02:03:34;101339.63;;;16.93;49.85
59190;BME280;50749;51.636;4.948;2023-03-15T02:06:04;101351.47;;;16.94;49.85
59190;BME280;50749;51.636;4.948;2023-03-15T02:08:37;101344.31;;;16.93;49.48
59190;BME280;50749;51.636;4.948;2023-03-15T02:11:04;101360.88;;;16.93;49.61
59190;BME280;50749;51.636;4.948;2023-03-15T02:13:32;101352.13;;;16.90;49.67
59190;BME280;50749;51.636;4.948;2023-03-15T02:15:59;101345.81;;;16.90;49.93
59190;BME280;50749;51.636;4.948;2023-03-15T02:18:25;101347.41;;;16.91;49.70
59190;BME280;50749;51.636;4.948;2023-03-15T02:21:13;101345.81;;;16.90;49.51
59190;BME280;50749;51.636;4.948;2023-03-15T02:23:40;101342.25;;;16.89;49.54
59190;BME280;50749;51.636;4.948;2023-03-15T02:28:40;101345.34;;;16.88;49.84
59190;BME280;50749;51.636;4.948;2023-03-15T02:31:07;101341.75;;;16.87;49.88
59190;BME280;50749;51.636;4.948;2023-03-15T02:38:36;101362.59;;;16.85;49.52
59190;BME280;50749;51.636;4.948;2023-03-15T02:41:03;101370.03;;;16.84;49.68
59190;BME280;50749;51.636;4.948;2023-03-15T02:43:29;101372.81;;;16.84;49.85
59190;BME280;50749;51.636;4.948;2023-03-15T02:45:58;101371.97;;;16.84;49.89
59190;BME280;50749;51.636;4.948;2023-03-15T02:48:25;101373.16;;;16.83;49.43
59190;BME280;50749;51.636;4.948;2023-03-15T02:50:51;101382.56;;;16.82;49.51
59190;BME280;50749;51.636;4.948;2023-03-15T02:53:17;101382.56;;;16.82;49.47
59190;BME280;50749;51.636;4.948;2023-03-15T02:55:43;101384.53;;;16.81;49.76
59190;BME280;50749;51.636;4.948;2023-03-15T02:58:08;101391.97;;;16.81;49.65
59190;BME280;50749;51.636;4.948;2023-03-15T03:00:35;101395.06;;;16.79;49.30
59190;BME280;50749;51.636;4.948;2023-03-15T03:03:00;101406.13;;;16.79;49.36
59190;BME280;50749;51.636;4.948;2023-03-15T03:05:27;101412.81;;;16.78;49.64
59190;BME280;50749;51.636;4.948;2023-03-15T03:07:52;101410.03;;;16.78;49.56
59190;BME280;50749;51.636;4.948;2023-03-15T03:10:19;101420.25;;;16.78;49.43
59190;BME280;50749;51.636;4.948;2023-03-15T03:12:45;101434.06;;;16.78;49.72
59190;BME280;50749;51.636;4.948;2023-03-15T03:15:11;101430.84;;;16.76;49.50
59190;BME280;50749;51.636;4.948;2023-03-15T03:17:37;101436.69;;;16.74;49.70
59190;BME280;50749;51.636;4.948;2023-03-15T03:20:05;101439.44;;;16.74;49.60
59190;BME280;50749;51.636;4.948;2023-03-15T03:22:33;101437.84;;;16.73;49.76
59190;BME280;50749;51.636;4.948;2023-03-15T03:24:59;101450.03;;;16.72;49.35
59190;BME280;50749;51.636;4.948;2023-03-15T03:27:25;101441.75;;;16.72;49.67
59190;BME280;50749;51.636;4.948;2023-03-15T03:29:51;101448.75;;;16.69;49.83
59190;BME280;50749;51.636;4.948;2023-03-15T03:32:16;101450.34;;;16.70;49.69
59190;BME280;50749;51.636;4.948;2023-03-15T03:34:42;101450.69;;;16.69;49.23
59190;BME280;50749;51.636;4.948;2023-03-15T03:37:19;101458.19;;;16.68;49.53
59190;BME280;50749;51.636;4.948;2023-03-15T03:39:46;101459.31;;;16.67;49.58
59190;BME280;50749;51.636;4.948;2023-03-15T03:42:12;101462.91;;;16.68;49.27
59190;BME280;50749;51.636;4.948;2023-03-15T03:44:39;101463.22;;;16.66;49.37
59190;BME280;50749;51.636;4.948;2023-03-15T03:47:06;101454.13;;;16.66;49.28
59190;BME280;50749;51.636;4.948;2023-03-15T03:49:32;101463.22;;;16.66;49.16
59190;BME280;50749;51.636;4.948;2023-03-15T03:51:58;101465.16;;;16.66;49.24
59190;BME280;50749;51.636;4.948;2023-03-15T03:54:26;101469.88;;;16.65;49.36
59190;BME280;50749;51.636;4.948;2023-03-15T03:56:52;101478.81;;;16.62;49.31
59190;BME280;50749;51.636;4.948;2023-03-15T03:59:18;101484.00;;;16.64;49.23
59190;BME280;50749;51.636;4.948;2023-03-15T04:01:44;101481.59;;;16.62;49.16
59190;BME280;50749;51.636;4.948;2023-03-15T04:04:10;101488.25;;;16.61;49.64
59190;BME280;50749;51.636;4.948;2023-03-15T04:06:40;101489.41;;;16.60;49.99
59190;BME280;50749;51.636;4.948;2023-03-15T04:09:14;101493.78;;;16.61;49.93
59190;BME280;50749;51.636;4.948;2023-03-15T04:11:41;101500.91;;;16.62;50.00
59190;BME280;50749;51.636;4.948;2023-03-15T04:14:12;101505.78;;;16.65;49.61
59190;BME280;50749;51.636;4.948;2023-03-15T04:16:39;101509.97;;;16.71;49.86
59190;BME280;50749;51.636;4.948;2023-03-15T04:19:06;101502.28;;;16.77;49.72
59190;BME280;50749;51.636;4.948;2023-03-15T04:21:32;101511.22;;;16.83;48.91
59190;BME280;50749;51.636;4.948;2023-03-15T04:23:59;101511.50;;;16.90;48.31
59190;BME280;50749;51.636;4.948;2023-03-15T04:26:26;101515.00;;;16.99;49.36
59190;BME280;50749;51.636;4.948;2023-03-15T04:28:57;101517.75;;;17.08;49.58
59190;BME280;50749;51.636;4.948;2023-03-15T04:31:24;101525.13;;;17.16;49.97
59190;BME280;50749;51.636;4.948;2023-03-15T04:33:55;101520.69;;;17.24;49.97
59190;BME280;50749;51.636;4.948;2023-03-15T04:36:23;101519.38;;;17.30;50.17
59190;BME280;50749;51.636;4.948;2023-03-15T04:38:49;101531.81;;;17.36;50.35
59190;BME280;50749;51.636;4.948;2023-03-15T04:41:16;101530.47;;;17.42;50.32
59190;BME280;50749;51.636;4.948;2023-03-15T04:43:43;101531.91;;;17.49;50.22
59190;BME280;50749;51.636;4.948;2023-03-15T04:46:09;101532.03;;;17.52;50.08
59190;BME280;50749;51.636;4.948;2023-03-15T04:48:35;101529.84;;;17.58;50.00
59190;BME280;50749;51.636;4.948;2023-03-15T04:51:01;101532.75;;;17.61;50.33
59190;BME280;50749;51.636;4.948;2023-03-15T04:53:28;101537.25;;;17.66;50.16
59190;BME280;50749;51.636;4.948;2023-03-15T04:55:53;101541.78;;;17.71;50.57
59190;BME280;50749;51.636;4.948;2023-03-15T04:58:19;101546.75;;;17.77;50.60
59190;BME280;50749;51.636;4.948;2023-03-15T05:00:45;101551.28;;;17.82;50.24
59190;BME280;50749;51.636;4.948;2023-03-15T05:03:11;101548.34;;;17.87;50.20
59190;BME280;50749;51.636;4.948;2023-03-15T05:05:37;101552.81;;;17.92;50.27
59190;BME280;50749;51.636;4.948;2023-03-15T05:08:03;101564.00;;;17.95;50.41
59190;BME280;50749;51.636;4.948;2023-03-15T05:10:29;101563.81;;;18.00;49.96
59190;BME280;50749;51.636;4.948;2023-03-15T05:12:56;101566.72;;;18.04;50.18
59190;BME280;50749;51.636;4.948;2023-03-15T05:15:21;101556.91;;;18.07;50.31
59190;BME280;50749;51.636;4.948;2023-03-15T05:17:47;101560.97;;;18.09;50.41
59190;BME280;50749;51.636;4.948;2023-03-15T05:20:14;101564.97;;;18.12;50.05
59190;BME280;50749;51.636;4.948;2023-03-15T05:22:41;101574.56;;;18.14;50.01
59190;BME280;50749;51.636;4.948;2023-03-15T05:25:08;101573.06;;;18.17;50.23
59190;BME280;50749;51.636;4.948;2023-03-15T05:27:36;101574.34;;;18.19;50.10
59190;BME280;50749;51.636;4.948;2023-03-15T05:30:02;101577.59;;;18.22;50.08
59190;BME280;50749;51.636;4.948;2023-03-15T05:32:30;101574.13;;;18.25;49.89
59190;BME280;50749;51.636;4.948;2023-03-15T05:35:03;101581.75;;;18.28;50.44
59190;BME280;50749;51.636;4.948;2023-03-15T05:37:30;101583.69;;;18.27;50.37
59190;BME280;50749;51.636;4.948;2023-03-15T05:39:57;101593.97;;;18.27;51.02
59190;BME280;50749;51.636;4.948;2023-03-15T05:42:24;101595.59;;;18.28;51.66
59190;BME280;50749;51.636;4.948;2023-03-15T05:44:55;101604.69;;;18.28;51.34
59190;BME280;50749;51.636;4.948;2023-03-15T05:47:21;101607.47;;;18.28;51.66
59190;BME280;50749;51.636;4.948;2023-03-15T05:49:48;101607.81;;;18.27;51.66
59190;BME280;50749;51.636;4.948;2023-03-15T05:52:14;101615.31;;;18.26;50.79
59190;BME280;50749;51.636;4.948;2023-03-15T05:54:41;101622.44;;;18.27;51.21
59190;BME280;50749;51.636;4.948;2023-03-15T05:57:07;101623.28;;;18.28;52.24
59190;BME280;50749;51.636;4.948;2023-03-15T05:59:32;101630.91;;;18.31;51.46
59190;BME280;50749;51.636;4.948;2023-03-15T06:01:59;101628.59;;;18.33;51.40
59190;BME280;50749;51.636;4.948;2023-03-15T06:04:25;101627.75;;;18.32;51.28
59190;BME280;50749;51.636;4.948;2023-03-15T06:06:52;101637.69;;;18.33;51.59
59190;BME280;50749;51.636;4.948;2023-03-15T06:09:18;101644.88;;;18.34;51.80
59190;BME280;50749;51.636;4.948;2023-03-15T06:11:44;101643.25;;;18.33;51.55
59190;BME280;50749;51.636;4.948;2023-03-15T06:14:09;101651.53;;;18.33;51.40
59190;BME280;50749;51.636;4.948;2023-03-15T06:16:35;101658.72;;;18.34;51.53
59190;BME280;50749;51.636;4.948;2023-03-15T06:19:01;101663.41;;;18.34;51.55
59190;BME280;50749;51.636;4.948;2023-03-15T06:21:28;101667.81;;;18.35;51.47
59190;BME280;50749;51.636;4.948;2023-03-15T06:23:53;101663.56;;;18.37;51.37
59190;BME280;50749;51.636;4.948;2023-03-15T06:26:19;101670.25;;;18.36;51.23
59190;BME280;50749;51.636;4.948;2023-03-15T06:28:46;101678.22;;;18.38;51.16
59190;BME280;50749;51.636;4.948;2023-03-15T06:31:13;101681.31;;;18.36;51.55
59190;BME280;50749;51.636;4.948;2023-03-15T06:33:39;101689.28;;;18.38;51.68
59190;BME280;50749;51.636;4.948;2023-03-15T06:36:06;101687.78;;;18.41;51.39
59190;BME280;50749;51.636;4.948;2023-03-15T06:38:32;101693.94;;;18.46;51.51
59190;BME280;50749;51.636;4.948;2023-03-15T06:40:58;101694.38;;;18.48;51.12
59190;BME280;50749;51.636;4.948;2023-03-15T06:43:30;101707.22;;;18.53;51.06
59190;BME280;50749;51.636;4.948;2023-03-15T06:45:56;101708.13;;;18.57;50.91
59190;BME280;50749;51.636;4.948;2023-03-15T06:48:25;101710.09;;;18.56;50.74
59190;BME280;50749;51.636;4.948;2023-03-15T06:50:51;101714.00;;;18.55;50.72
59190;BME280;50749;51.636;4.948;2023-03-15T06:53:16;101714.69;;;18.52;51.23
59190;BME280;50749;51.636;4.948;2023-03-15T06:55:43;101715.84;;;18.51;51.03
59190;BME280;50749;51.636;4.948;2023-03-15T06:58:10;101718.16;;;18.49;51.06
59190;BME280;50749;51.636;4.948;2023-03-15T07:00:36;101716.53;;;18.48;50.69
59190;BME280;50749;51.636;4.948;2023-03-15T07:03:02;101708.22;;;18.48;50.93
59190;BME280;50749;51.636;4.948;2023-03-15T07:05:29;101725.97;;;18.47;50.99
59190;BME280;50749;51.636;4.948;2023-03-15T07:07:56;101733.50;;;18.47;50.81
59190;BME280;50749;51.636;4.948;2023-03-15T07:10:23;101735.44;;;18.46;50.34
59190;BME280;50749;51.636;4.948;2023-03-15T07:12:48;101738.56;;;18.45;50.33
59190;BME280;50749;51.636;4.948;2023-03-15T07:15:14;101738.91;;;18.43;50.37
59190;BME280;50749;51.636;4.948;2023-03-15T07:17:40;101742.81;;;18.42;50.30
59190;BME280;50749;51.636;4.948;2023-03-15T07:20:06;101746.25;;;18.39;50.12
59190;BME280;50749;51.636;4.948;2023-03-15T07:22:33;101750.19;;;18.38;50.44
59190;BME280;50749;51.636;4.948;2023-03-15T07:24:59;101754.75;;;18.34;50.75
59190;BME280;50749;51.636;4.948;2023-03-15T07:27:25;101756.72;;;18.33;50.29
59190;BME280;50749;51.636;4.948;2023-03-15T07:29:51;101765.38;;;18.32;50.49
59190;BME280;50749;51.636;4.948;2023-03-15T07:32:17;101767.66;;;18.30;50.42
59190;BME280;50749;51.636;4.948;2023-03-15T07:34:43;101770.44;;;18.30;50.53
59190;BME280;50749;51.636;4.948;2023-03-15T07:37:09;101766.38;;;18.27;50.38
59190;BME280;50749;51.636;4.948;2023-03-15T07:39:35;101782.97;;;18.27;50.84
59190;BME280;50749;51.636;4.948;2023-03-15T07:42:01;101792.91;;;18.28;50.95
59190;BME280;50749;51.636;4.948;2023-03-15T07:44:27;101796.81;;;18.27;50.92
59190;BME280;50749;51.636;4.948;2023-03-15T07:46:52;101800.75;;;18.26;50.74
59190;BME280;50749;51.636;4.948;2023-03-15T07:49:19;101798.91;;;18.30;50.54
59190;BME280;50749;51.636;4.948;2023-03-15T07:51:45;101806.22;;;18.35;50.80
59190;BME280;50749;51.636;4.948;2023-03-15T07:54:11;101808.31;;;18.38;50.64
59190;BME280;50749;51.636;4.948;2023-03-15T07:56:37;101818.22;;;18.39;50.40
59190;BME280;50749;51.636;4.948;2023-03-15T07:59:03;101828.63;;;18.42;50.51
59190;BME280;50749;51.636;4.948;2023-03-15T08:01:28;101837.44;;;18.44;50.67
59190;BME280;50749;51.636;4.948;2023-03-15T08:03:54;101844.22;;;18.47;50.84
59190;BME280;50749;51.636;4.948;2023-03-15T08:06:20;101839.16;;;18.49;50.61
59190;BME280;50749;51.636;4.948;2023-03-15T08:08:46;101835.25;;;18.50;50.71
59190;BME280;50749;51.636;4.948;2023-03-15T08:11:12;101840.47;;;18.51;50.43
59190;BME280;50749;51.636;4.948;2023-03-15T08:13:38;101843.69;;;18.53;51.08
59190;BME280;50749;51.636;4.948;2023-03-15T08:16:04;101832.97;;;18.52;50.53
59190;BME280;50749;51.636;4.948;2023-03-15T08:18:30;101840.94;;;18.53;50.54
59190;BME280;50749;51.636;4.948;2023-03-15T08:20:55;101847.28;;;18.54;50.76
59190;BME280;50749;51.636;4.948;2023-03-15T08:23:22;101856.75;;;18.53;50.53
59190;BME280;50749;51.636;4.948;2023-03-15T08:25:48;101855.91;;;18.52;50.71
59190;BME280;50749;51.636;4.948;2023-03-15T08:28:15;101849.56;;;18.52;50.83
59190;BME280;50749;51.636;4.948;2023-03-15T08:30:40;101856.75;;;18.53;51.18
59190;BME280;50749;51.636;4.948;2023-03-15T08:33:07;101856.75;;;18.53;50.59
59190;BME280;50749;51.636;4.948;2023-03-15T08:35:32;101865.03;;;18.53;50.47
59190;BME280;50749;51.636;4.948;2023-03-15T08:38:00;101866.97;;;18.52;50.66
59190;BME280;50749;51.636;4.948;2023-03-15T08:40:27;101862.28;;;18.53;50.82
59190;BME280;50749;51.636;4.948;2023-03-15T08:42:55;101863.06;;;18.53;50.67
59190;BME280;50749;51.636;4.948;2023-03-15T08:45:23;101863.06;;;18.53;51.06
59190;BME280;50749;51.636;4.948;2023-03-15T08:47:56;101868.63;;;18.53;50.80
59190;BME280;50749;51.636;4.948;2023-03-15T08:50:23;101868.28;;;18.55;50.66
59190;BME280;50749;51.636;4.948;2023-03-15T08:52:49;101873.50;;;18.56;50.89
59190;BME280;50749;51.636;4.948;2023-03-15T08:55:15;101872.69;;;18.56;50.86
59190;BME280;50749;51.636;4.948;2023-03-15T08:57:42;101877.84;;;18.57;50.73
59190;BME280;50749;51.636;4.948;2023-03-15T09:00:09;101873.50;;;18.56;50.97
59190;BME280;50749;51.636;4.948;2023-03-15T09:02:48;101884.56;;;18.56;50.58
59190;BME280;50749;51.636;4.948;2023-03-15T09:05:17;101888.94;;;18.57;50.77
59190;BME280;50749;51.636;4.948;2023-03-15T09:07:43;101884.56;;;18.56;50.93
59190;BME280;50749;51.636;4.948;2023-03-15T09:10:11;101887.81;;;18.59;51.19
59190;BME280;50749;51.636;4.948;2023-03-15T09:12:44;101879.97;;;18.61;50.64
59190;BME280;50749;51.636;4.948;2023-03-15T09:15:11;101879.97;;;18.61;50.60
59190;BME280;50749;51.636;4.948;2023-03-15T09:17:38;101878.34;;;18.60;50.86
59190;BME280;50749;51.636;4.948;2023-03-15T09:20:05;101873.75;;;18.64;51.17
59190;BME280;50749;51.636;4.948;2023-03-15T09:22:40;101875.38;;;18.65;50.67
59190;BME280;50749;51.636;4.948;2023-03-15T09:25:06;101883.03;;;18.68;51.15
59190;BME280;50749;51.636;4.948;2023-03-15T09:27:34;101879.91;;;18.69;50.57
59190;BME280;50749;51.636;4.948;2023-03-15T09:30:01;101874.72;;;18.68;50.71
59190;BME280;50749;51.636;4.948;2023-03-15T09:32:27;101881.06;;;18.68;50.64
59190;BME280;50749;51.636;4.948;2023-03-15T09:34:53;101885.78;;;18.68;50.80
59190;BME280;50749;51.636;4.948;2023-03-15T09:37:19;101885.28;;;18.66;50.72
59190;BME280;50749;51.636;4.948;2023-03-15T09:39:46;101879.41;;;18.67;50.70
59190;BME280;50749;51.636;4.948;2023-03-15T09:42:21;101895.22;;;18.67;50.63
59190;BME280;50749;51.636;4.948;2023-03-15T09:44:58;101889.03;;;18.70;50.53
59190;BME280;50749;51.636;4.948;2023-03-15T09:52:50;101895.56;;;18.65;50.51
59190;BME280;50749;51.636;4.948;2023-03-15T09:55:26;101898.66;;;18.64;51.12
59190;BME280;50749;51.636;4.948;2023-03-15T09:58:02;101890.69;;;18.62;51.12
59190;BME280;50749;51.636;4.948;2023-03-15T10:00:44;101887.81;;;18.59;50.64
59190;BME280;50749;51.636;4.948;2023-03-15T10:03:44;101895.63;;;18.56;51.01
59190;BME280;50749;51.636;4.948;2023-03-15T10:06:28;101891.56;;;18.54;51.13
59190;BME280;50749;51.636;4.948;2023-03-15T10:08:59;101896.63;;;18.52;50.90
59190;BME280;50749;51.636;4.948;2023-03-15T10:11:43;101898.28;;;18.53;51.10
59190;BME280;50749;51.636;4.948;2023-03-15T10:15:09;101901.50;;;18.55;50.80
59190;BME280;50749;51.636;4.948;2023-03-15T10:20:48;101901.97;;;18.57;50.87
59190;BME280;50749;51.636;4.948;2023-03-15T10:23:24;101894.47;;;18.57;50.59
59190;BME280;50749;51.636;4.948;2023-03-15T10:25:53;101894.00;;;18.55;50.66
59190;BME280;50749;51.636;4.948;2023-03-15T10:28:26;101897.25;;;18.57;50.38
59190;BME280;50749;51.636;4.948;2023-03-15T10:30:56;101902.78;;;18.57;50.83
59190;BME280;50749;51.636;4.948;2023-03-15T10:33:31;101905.09;;;18.55;50.29
59190;BME280;50749;51.636;4.948;2023-03-15T10:35:59;101908.31;;;18.57;50.60
59190;BME280;50749;51.636;4.948;2023-03-15T10:38:26;101916.50;;;18.54;50.79
59190;BME280;50749;51.636;4.948;2023-03-15T10:40:57;101914.56;;;18.54;50.77
59190;BME280;50749;51.636;4.948;2023-03-15T10:46:13;101921.38;;;18.57;50.94
59190;BME280;50749;51.636;4.948;2023-03-15T10:48:56;101927.25;;;18.55;50.78
59190;BME280;50749;51.636;4.948;2023-03-15T10:51:31;101928.88;;;18.56;51.01
59190;BME280;50749;51.636;4.948;2023-03-15T10:54:07;101931.63;;;18.56;50.46
59190;BME280;50749;51.636;4.948;2023-03-15T10:56:49;101935.22;;;18.57;50.41
59190;BME280;50749;51.636;4.948;2023-03-15T11:01:46;101928.06;;;18.56;50.57
59190;BME280;50749;51.636;4.948;2023-03-15T11:04:18;101930.47;;;18.57;50.56
59190;BME280;50749;51.636;4.948;2023-03-15T11:09:22;101943.53;;;18.57;50.73
59190;BME280;50749;51.636;4.948;2023-03-15T11:14:17;101949.38;;;18.55;50.42
59190;BME280;50749;51.636;4.948;2023-03-15T11:16:47;101960.00;;;18.53;50.48
59190;BME280;50749;51.636;4.948;2023-03-15T11:19:17;101960.00;;;18.53;50.76
59190;BME280;50749;51.636;4.948;2023-03-15T11:21:45;101968.50;;;18.48;50.49
59190;BME280;50749;51.636;4.948;2023-03-15T11:24:21;101969.63;;;18.47;50.78
59190;BME280;50749;51.636;4.948;2023-03-15T11:26:48;101967.56;;;18.44;50.79
59190;BME280;50749;51.636;4.948;2023-03-15T11:29:28;101966.72;;;18.44;50.83
59190;BME280;50749;51.636;4.948;2023-03-15T11:31:58;101963.97;;;18.44;50.92
59190;BME280;50749;51.636;4.948;2023-03-15T11:34:44;101970.31;;;18.44;50.89
59190;BME280;50749;51.636;4.948;2023-03-15T11:37:19;101963.16;;;18.43;50.49
59190;BME280;50749;51.636;4.948;2023-03-15T11:39:56;101956.81;;;18.43;50.53
59190;BME280;50749;51.636;4.948;2023-03-15T11:45:56;101945.56;;;18.39;50.96
59190;BME280;50749;51.636;4.948;2023-03-15T11:51:10;101943.97;;;18.38;50.54
59190;BME280;50749;51.636;4.948;2023-03-15T11:53:41;101944.78;;;18.38;50.48
59190;BME280;50749;51.636;4.948;2023-03-15T11:56:26;101940.53;;;18.41;50.23
59190;BME280;50749;51.636;4.948;2023-03-15T11:59:10;101938.25;;;18.43;50.25
59190;BME280;50749;51.636;4.948;2023-03-15T12:01:44;101935.13;;;18.45;50.19
59190;BME280;50749;51.636;4.948;2023-03-15T12:17:53;101947.03;;;18.07;41.89
59190;BME280;50749;51.636;4.948;2023-03-15T12:20:37;101941.38;;;18.03;44.26
59190;BME280;50749;51.636;4.948;2023-03-15T12:29:19;101933.06;;;18.03;45.80
59190;BME280;50749;51.636;4.948;2023-03-15T12:31:20;101942.34;;;18.07;46.07
59190;BME280;50749;51.636;4.948;2023-03-15T12:33:54;101945.91;;;18.08;46.26
59190;BME280;50749;51.636;4.948;2023-03-15T12:36:33;101942.81;;;18.09;46.38
59190;BME280;50749;51.636;4.948;2023-03-15T12:39:19;101936.13;;;18.10;45.97
59190;BME280;50749;51.636;4.948;2023-03-15T12:41:48;101933.69;;;18.09;45.91
59190;BME280;50749;51.636;4.948;2023-03-15T12:47:02;101929.78;;;18.10;46.68
59190;BME280;50749;51.636;4.948;2023-03-15T12:49:40;101940.03;;;18.09;46.78
59190;BME280;50749;51.636;4.948;2023-03-15T12:57:14;101933.34;;;18.10;47.20
59190;BME280;50749;51.636;4.948;2023-03-15T12:59:50;101936.44;;;18.09;47.01
59190;BME280;50749;51.636;4.948;2023-03-15T13:04:58;101931.75;;;18.09;46.77
59190;BME280;50749;51.636;4.948;2023-03-15T13:18:54;101922.00;;;18.03;46.97
59190;BME280;50749;51.636;4.948;2023-03-15T13:21:35;101923.97;;;18.03;46.53
59190;BME280;50749;51.636;4.948;2023-03-15T13:24:18;101919.56;;;18.01;47.04
59190;BME280;50749;51.636;4.948;2023-03-15T13:26:53;101916.00;;;18.01;46.75
59190;BME280;50749;51.636;4.948;2023-03-15T13:29:26;101911.59;;;18.00;47.23
59190;BME280;50749;51.636;4.948;2023-03-15T13:32:21;101916.66;;;17.98;46.95
59190;BME280;50749;51.636;4.948;2023-03-15T13:34:47;101924.63;;;17.99;47.36
59190;BME280;50749;51.636;4.948;2023-03-15T13:37:23;101923.81;;;17.99;47.59
59190;BME280;50749;51.636;4.948;2023-03-15T13:40:02;101921.25;;;17.94;47.49
59190;BME280;50749;51.636;4.948;2023-03-15T13:42:30;101929.69;;;17.97;47.33
59190;BME280;50749;51.636;4.948;2023-03-15T13:47:33;101927.25;;;17.96;47.30
59190;BME280;50749;51.636;4.948;2023-03-15T13:50:04;101935.06;;;17.94;47.27
59190;BME280;50749;51.636;4.948;2023-03-15T13:52:30;101944.50;;;17.93;47.78
59190;BME280;50749;51.636;4.948;2023-03-15T13:54:58;101934.56;;;17.92;47.54
59190;BME280;50749;51.636;4.948;2023-03-15T13:57:24;101936.22;;;17.93;47.74
59190;BME280;50749;51.636;4.948;2023-03-15T13:59:59;101938.66;;;17.94;47.56
59190;BME280;50749;51.636;4.948;2023-03-15T14:05:07;101938.16;;;17.92;47.70
59190;BME280;50749;51.636;4.948;2023-03-15T14:07:36;101939.13;;;17.96;47.45
59190;BME280;50749;51.636;4.948;2023-03-15T14:12:42;101943.00;;;17.95;47.56
59190;BME280;50749;51.636;4.948;2023-03-15T14:20:29;101939.25;;;18.00;47.54
59190;BME280;50749;51.636;4.948;2023-03-15T14:22:59;101938.28;;;18.05;47.60
59190;BME280;50749;51.636;4.948;2023-03-15T14:25:26;101949.00;;;18.06;47.26
59190;BME280;50749;51.636;4.948;2023-03-15T14:27:53;101947.88;;;18.07;47.67
59190;BME280;50749;51.636;4.948;2023-03-15T14:30:24;101946.38;;;18.10;47.33
59190;BME280;50749;51.636;4.948;2023-03-15T14:32:54;101949.47;;;18.08;46.89
59190;BME280;50749;51.636;4.948;2023-03-15T14:35:29;101946.72;;;18.08;47.02